createdAt,value
2023-05-19T00:07:32.711Z,9.4323
2023-05-19T00:09:33.672Z,9.4286
2023-05-19T00:10:34.787Z,9.4150
2023-05-19T00:13:37.322Z,9.3383
2023-05-19T00:20:40.060Z,9.3516
2023-05-19T00:21:41.099Z,9.3075
2023-05-19T00:23:42.369Z,9.4356
2023-05-19T00:24:42.912Z,9.3587
2023-05-19T00:25:43.599Z,9.3035
2023-05-19T00:26:44.749Z,9.3613
2023-05-19T00:28:45.662Z,9.2124
2023-05-19T00:29:46.719Z,9.1728
2023-05-19T00:34:49.368Z,9.2868
2023-05-19T00:36:50.043Z,9.2342
2023-05-19T00:37:50.088Z,9.1558
2023-05-19T00:38:50.956Z,9.2469
2023-05-19T00:39:51.941Z,9.1213
2023-05-19T00:40:52.523Z,9.0822
2023-05-19T00:41:52.840Z,9.0637
2023-05-19T00:42:53.300Z,9.0862
2023-05-19T00:43:54.149Z,9.0417
2023-05-19T00:45:54.522Z,8.9908
2023-05-19T00:46:54.772Z,8.9762
2023-05-19T00:48:53.054Z,8.9985
2023-05-19T00:49:53.390Z,9.0728
2023-05-19T00:50:54.376Z,8.9547
2023-05-19T00:51:55.089Z,8.8800
2023-05-19T00:52:57.026Z,8.8910
2023-05-19T01:00:00.524Z,9.1405
2023-05-19T01:05:04.142Z,9.0695
2023-05-19T01:06:04.704Z,8.9135
2023-05-19T01:08:04.549Z,8.8143
2023-05-19T01:10:05.566Z,8.6657
2023-05-19T01:11:06.125Z,8.6929
2023-05-19T01:18:09.122Z,8.2604
2023-05-19T01:25:14.664Z,8.0723
2023-05-19T01:27:15.383Z,8.0677
2023-05-19T01:29:16.427Z,8.0036
2023-05-19T01:37:21.055Z,8.1732
2023-05-19T01:40:21.560Z,8.3242
2023-05-19T01:41:22.479Z,8.2454
2023-05-19T01:42:23.270Z,8.3129
2023-05-19T01:43:23.661Z,8.2893
2023-05-19T01:45:26.309Z,8.3153
2023-05-19T01:47:27.944Z,8.3352
2023-05-19T01:58:35.410Z,8.3197
2023-05-19T01:59:36.504Z,8.3995
2023-05-19T02:00:37.569Z,8.3035
2023-05-19T02:01:38.409Z,8.2741
2023-05-19T02:08:42.002Z,8.5399
2023-05-19T02:10:43.378Z,8.4298
2023-05-19T02:11:44.520Z,8.4271
2023-05-19T02:12:44.664Z,8.4018
2023-05-19T02:13:45.684Z,8.3432
2023-05-19T02:14:46.036Z,8.2596
2023-05-19T02:15:49.077Z,8.2125
2023-05-19T02:16:50.410Z,8.1998
2023-05-19T02:17:51.115Z,8.1968
2023-05-19T02:18:51.537Z,8.2294
2023-05-19T02:19:51.531Z,8.2691
2023-05-19T02:20:52.442Z,8.2297
2023-05-19T02:21:52.988Z,8.2854
2023-05-19T02:22:53.936Z,8.3556
2023-05-19T02:23:54.592Z,8.4624
2023-05-19T02:24:54.639Z,8.3585
2023-05-19T02:25:55.484Z,8.3074
2023-05-19T02:26:55.978Z,8.2987
2023-05-19T02:27:57.350Z,8.3422
2023-05-19T02:28:58.107Z,8.2820
2023-05-19T02:29:58.102Z,8.1734
2023-05-19T02:31:00.069Z,8.2058
2023-05-19T02:32:00.906Z,8.3049
2023-05-19T02:39:03.809Z,8.5543
2023-05-19T02:42:06.234Z,8.4761
2023-05-19T02:44:07.122Z,8.4877
2023-05-19T02:53:19.514Z,8.4227
2023-05-19T02:54:19.723Z,8.3313
2023-05-19T02:55:21.066Z,8.2426
2023-05-19T02:56:22.181Z,8.5196
2023-05-19T02:57:24.166Z,8.3542
2023-05-19T02:58:24.300Z,8.3409
2023-05-19T02:59:25.708Z,8.3977
2023-05-19T03:00:24.937Z,8.3425
2023-05-19T03:01:25.667Z,8.3165
2023-05-19T03:02:26.006Z,8.3039
2023-05-19T03:03:26.651Z,8.2842
2023-05-19T03:04:26.682Z,8.3297
2023-05-19T03:05:28.070Z,8.3520
2023-05-19T03:06:29.066Z,8.2443
2023-05-19T03:11:32.120Z,8.1779
2023-05-19T03:12:32.565Z,8.2363
2023-05-19T03:13:33.489Z,8.2753
2023-05-19T03:15:34.080Z,8.3824
2023-05-19T03:16:35.248Z,8.3984
2023-05-19T03:17:35.593Z,8.3403
2023-05-19T03:18:35.699Z,8.2516
2023-05-19T03:19:37.109Z,8.3704
2023-05-19T03:20:40.922Z,8.3195
2023-05-19T03:21:39.976Z,8.2160
2023-05-19T03:25:42.301Z,8.4321
2023-05-19T03:27:43.017Z,8.3279
2023-05-19T03:28:43.569Z,8.2099
2023-05-19T03:30:43.371Z,8.1410
2023-05-19T03:31:43.492Z,8.0607
2023-05-19T03:32:43.768Z,8.0112
2023-05-19T03:33:44.557Z,7.9420
2023-05-19T03:35:45.741Z,7.8703
2023-05-19T03:36:46.068Z,7.9413
2023-05-19T03:37:46.692Z,7.9752
2023-05-19T03:38:47.801Z,7.8506
2023-05-19T03:44:50.264Z,8.0631
2023-05-19T03:45:50.926Z,8.0872
2023-05-19T03:46:52.717Z,8.0133
2023-05-19T03:47:53.412Z,8.2326
2023-05-19T03:48:54.979Z,8.2242
2023-05-19T03:53:55.600Z,7.6715
2023-05-19T03:54:57.020Z,7.5509
2023-05-19T04:04:01.936Z,7.8569
2023-05-19T04:09:04.212Z,7.9577
2023-05-19T04:10:04.570Z,7.9311
2023-05-19T04:12:07.721Z,7.8044
2023-05-19T04:14:09.666Z,7.7670
2023-05-19T04:15:09.802Z,7.7828
2023-05-19T04:16:11.425Z,7.6874
2023-05-19T04:18:11.872Z,7.5064
2023-05-19T04:20:13.182Z,7.5445
2023-05-19T04:21:13.864Z,7.8669
2023-05-19T04:22:15.057Z,7.8749
2023-05-19T04:23:15.814Z,7.8779
2023-05-19T04:24:17.327Z,7.9209
2023-05-19T04:25:17.490Z,7.8845
2023-05-19T04:26:17.964Z,7.8675
2023-05-19T04:27:19.163Z,7.9634
2023-05-19T04:30:21.929Z,7.9852
2023-05-19T04:31:22.051Z,8.0324
2023-05-19T04:32:22.851Z,8.0837
2023-05-19T04:33:24.270Z,8.0901
2023-05-19T04:34:25.318Z,8.1643
2023-05-19T04:38:26.847Z,8.4257
2023-05-19T04:39:27.489Z,8.5123
2023-05-19T04:40:27.806Z,8.5128
2023-05-19T04:41:28.759Z,8.6249
2023-05-19T04:42:29.883Z,8.6908
2023-05-19T04:43:30.160Z,8.7561
2023-05-19T04:44:31.559Z,8.7782
2023-05-19T04:45:31.738Z,8.7967
2023-05-19T04:47:34.627Z,8.9014
2023-05-19T04:53:39.282Z,9.2156
2023-05-19T04:54:39.511Z,9.2486
2023-05-19T04:55:39.873Z,9.2742
2023-05-19T04:56:40.443Z,9.3573
2023-05-19T05:04:43.595Z,9.6076
2023-05-19T05:05:45.365Z,9.6231
2023-05-19T05:07:45.593Z,9.6892
2023-05-19T05:08:46.688Z,9.8146
2023-05-19T05:09:47.093Z,9.6936
2023-05-19T05:10:47.706Z,9.7564
2023-05-19T05:22:54.908Z,10.3016
2023-05-19T05:23:56.150Z,10.3136
2023-05-19T05:24:56.251Z,10.4132
2023-05-19T05:25:56.650Z,10.3457
2023-05-19T05:28:59.807Z,10.1570
2023-05-19T05:30:00.298Z,9.9798
2023-05-19T05:31:00.518Z,10.0150
2023-05-19T05:32:00.927Z,9.9862
2023-05-19T05:33:01.270Z,9.9106
2023-05-19T05:34:02.333Z,9.8423
2023-05-19T05:35:03.404Z,9.8464
2023-05-19T05:36:04.882Z,9.6403
2023-05-19T05:37:06.278Z,9.5732
2023-05-19T05:38:07.047Z,9.5278
2023-05-19T05:39:08.397Z,9.6162
2023-05-19T05:40:08.807Z,9.5705
2023-05-19T05:41:09.856Z,9.5331
2023-05-19T05:42:11.063Z,9.4519
2023-05-19T05:43:12.534Z,9.4563
2023-05-19T05:44:12.767Z,9.4001
2023-05-19T05:45:13.212Z,9.4734
2023-05-19T05:56:20.348Z,9.3280
2023-05-19T05:57:20.813Z,9.3195
2023-05-19T05:58:21.726Z,9.3707
2023-05-19T05:59:22.713Z,9.2944
2023-05-19T06:01:22.168Z,9.3933
2023-05-19T06:02:23.786Z,9.2800
2023-05-19T06:03:24.719Z,9.2128
2023-05-19T06:04:26.005Z,9.2560
2023-05-19T06:05:26.446Z,9.2325
2023-05-19T06:06:27.486Z,9.2766
2023-05-19T06:07:28.007Z,9.2101
2023-05-19T06:11:07.230Z,9.1674
2023-05-19T06:12:08.276Z,9.2216
2023-05-19T06:13:08.890Z,9.1714
2023-05-19T06:14:09.516Z,9.1631
2023-05-19T06:15:09.782Z,9.1659
2023-05-19T06:17:12.830Z,9.1835
2023-05-19T06:18:13.850Z,9.1824
2023-05-19T06:23:18.183Z,9.1114
2023-05-19T06:24:18.853Z,9.0853
2023-05-19T06:25:18.878Z,9.0797
2023-05-19T06:29:21.377Z,9.1143
2023-05-19T06:30:21.836Z,9.0854
2023-05-19T06:31:22.930Z,9.1214
2023-05-19T06:32:22.919Z,9.0979
2023-05-19T06:33:25.556Z,9.1506
2023-05-19T06:34:25.681Z,9.0694
2023-05-19T06:39:30.351Z,9.1096
2023-05-19T06:40:31.498Z,9.1362
2023-05-19T06:42:32.022Z,9.1333
2023-05-19T06:43:32.396Z,9.1524
2023-05-19T06:44:33.477Z,9.1404
2023-05-19T06:45:34.216Z,9.2173
2023-05-19T06:46:34.346Z,9.1788
2023-05-19T06:47:35.498Z,9.1852
2023-05-19T06:48:35.784Z,9.1672
2023-05-19T06:49:37.761Z,9.1567
2023-05-19T06:54:39.136Z,9.1626
2023-05-19T06:55:54.356Z,9.2310
2023-05-19T06:56:40.725Z,9.2964
2023-05-19T06:58:43.640Z,9.2437
2023-05-19T06:59:43.934Z,9.3105
2023-05-19T07:00:44.883Z,9.3078
2023-05-19T07:09:47.200Z,9.5279
2023-05-19T07:12:48.598Z,9.7908
2023-05-19T07:15:49.701Z,10.1412
2023-05-19T07:16:50.253Z,10.0082
2023-05-19T07:17:52.120Z,10.0613
2023-05-19T07:18:52.507Z,10.0229
2023-05-19T07:19:53.810Z,9.7529
2023-05-19T07:20:54.102Z,9.8815
2023-05-19T07:21:55.620Z,9.9518
2023-05-19T07:22:55.903Z,9.9272
2023-05-19T07:23:57.113Z,10.0108
2023-05-19T07:26:58.849Z,10.2273
2023-05-19T07:27:59.266Z,10.2188
2023-05-19T07:29:12.203Z,10.4112
2023-05-19T07:30:02.156Z,10.4434
2023-05-19T07:31:03.278Z,10.6186
2023-05-19T07:32:04.074Z,10.7543
2023-05-19T07:33:05.340Z,10.7199
2023-05-19T07:34:06.244Z,10.6654
2023-05-19T07:35:06.575Z,10.5837
2023-05-19T07:36:07.984Z,10.3670
2023-05-19T07:39:11.295Z,10.4666
2023-05-19T07:40:12.006Z,10.5812
2023-05-19T07:41:13.022Z,10.8158
2023-05-19T07:42:13.514Z,10.6046
2023-05-19T07:43:14.702Z,10.5177
2023-05-19T07:44:15.581Z,10.7420
2023-05-19T07:45:16.710Z,10.7676
2023-05-19T07:49:18.357Z,11.1987
2023-05-19T07:50:19.310Z,11.3183
2023-05-19T07:51:19.558Z,11.3121
2023-05-19T07:54:21.657Z,11.6585
2023-05-19T07:55:22.106Z,11.9671
2023-05-19T07:56:22.823Z,11.8892
2023-05-19T07:57:23.207Z,11.8017
2023-05-19T07:58:24.073Z,12.1394
2023-05-19T07:59:25.427Z,11.7642
2023-05-19T08:00:26.070Z,12.2022
2023-05-19T08:01:27.134Z,11.8199
2023-05-19T08:02:27.670Z,12.0303
2023-05-19T08:04:29.651Z,11.9702
2023-05-19T08:05:30.303Z,12.0611
2023-05-19T08:06:30.867Z,11.6402
2023-05-19T08:07:31.354Z,11.2031
2023-05-19T08:12:33.891Z,11.0211
2023-05-19T08:13:34.669Z,11.0690
2023-05-19T08:14:34.962Z,11.0470
2023-05-19T08:15:35.478Z,11.3071
2023-05-19T08:16:36.021Z,11.1345
2023-05-19T08:17:36.928Z,11.1798
2023-05-19T08:18:37.766Z,11.5570
2023-05-19T08:21:38.737Z,11.4874
2023-05-19T08:22:38.971Z,11.2460
2023-05-19T08:23:39.902Z,11.4476
2023-05-19T08:24:40.705Z,11.6631
2023-05-19T08:25:42.358Z,11.6929
2023-05-19T08:26:43.232Z,11.7282
2023-05-19T08:27:44.022Z,11.5731
2023-05-19T08:28:44.969Z,11.3998
2023-05-19T08:29:45.977Z,11.6384
2023-05-19T08:33:47.502Z,11.4391
2023-05-19T08:34:47.883Z,11.5880
2023-05-19T08:35:47.922Z,11.7264
2023-05-19T08:36:49.060Z,11.4215
2023-05-19T08:37:49.155Z,11.5421
2023-05-19T08:38:50.117Z,11.2586
2023-05-19T08:39:51.327Z,11.3965
2023-05-19T08:40:51.735Z,11.2210
2023-05-19T08:52:19.439Z,11.8872
2023-05-19T08:54:19.789Z,12.2995
2023-05-19T08:55:20.777Z,12.6597
2023-05-19T08:56:21.872Z,12.7371
2023-05-19T08:57:22.927Z,13.1356
2023-05-19T08:58:23.765Z,13.1783
2023-05-19T08:59:24.600Z,12.7522
2023-05-19T09:00:25.689Z,13.2836
2023-05-19T09:01:25.938Z,12.7991
2023-05-19T09:02:27.057Z,13.2687
2023-05-19T09:03:28.691Z,13.2205
2023-05-19T09:04:29.994Z,12.7986
2023-05-19T09:05:29.465Z,12.8005
2023-05-19T09:06:30.187Z,12.2761
2023-05-19T09:07:31.459Z,12.4654
2023-05-19T09:08:32.582Z,12.5161
2023-05-19T09:09:32.753Z,12.7611
2023-05-19T09:10:33.476Z,12.8274
2023-05-19T09:11:33.616Z,12.9308
2023-05-19T09:12:34.824Z,12.8714
2023-05-19T09:13:36.007Z,12.4201
2023-05-19T09:14:37.208Z,12.0415
2023-05-19T09:32:51.180Z,11.6621
2023-05-19T09:33:51.426Z,11.9452
2023-05-19T09:34:52.551Z,11.5912
2023-05-19T09:35:52.684Z,11.4581
2023-05-19T09:36:53.861Z,11.7248
2023-05-19T09:37:54.132Z,11.9921
2023-05-19T09:38:55.160Z,12.1780
2023-05-19T09:39:56.112Z,12.5548
2023-05-19T09:40:57.048Z,12.3523
2023-05-19T09:41:58.065Z,12.5560
2023-05-19T09:42:59.133Z,13.0556
2023-05-19T09:44:00.189Z,12.7968
2023-05-19T09:45:01.270Z,13.1353
2023-05-19T09:46:02.288Z,13.2926
2023-05-19T09:47:03.246Z,13.3558
2023-05-19T09:48:04.171Z,13.0877
2023-05-19T09:49:04.186Z,12.8297
2023-05-19T09:50:05.089Z,13.4337
2023-05-19T09:51:06.206Z,13.4620
2023-05-19T09:52:07.214Z,14.0161
2023-05-19T09:53:08.191Z,13.4084
2023-05-19T09:54:08.298Z,13.0570
2023-05-19T09:55:09.342Z,13.4039
2023-05-19T09:56:09.365Z,13.1272
2023-05-19T09:57:10.384Z,13.1866
2023-05-19T10:20:28.893Z,13.3192
2023-05-19T10:21:30.063Z,13.4501
2023-05-19T10:22:31.270Z,12.8960
2023-05-19T10:23:32.049Z,13.3159
2023-05-19T10:24:33.162Z,13.4692
2023-05-19T10:25:34.425Z,13.6927
2023-05-19T10:26:34.331Z,13.5121
2023-05-19T10:27:35.271Z,13.4065
2023-05-19T10:28:36.190Z,13.4219
2023-05-19T10:29:37.098Z,13.5681
2023-05-19T10:30:38.150Z,13.9059
2023-05-19T10:31:39.319Z,13.7155
2023-05-19T10:32:39.397Z,13.4907
2023-05-19T10:33:40.432Z,13.5325
2023-05-19T10:34:41.277Z,14.2533
2023-05-19T10:35:42.199Z,14.1968
2023-05-19T10:36:42.266Z,13.9296
2023-05-19T10:37:43.449Z,13.5921
2023-05-19T10:38:44.527Z,13.4825
2023-05-19T10:39:45.094Z,13.5197
2023-05-19T10:40:46.093Z,13.3529
2023-05-19T10:41:47.063Z,12.9978
2023-05-19T10:42:46.928Z,13.2576
2023-05-19T10:43:48.182Z,13.4547
2023-05-19T10:44:48.733Z,13.5667
2023-05-19T10:45:48.944Z,13.8826
2023-05-19T10:46:49.474Z,14.3889
2023-05-19T11:03:04.226Z,14.1669
2023-05-19T11:04:05.989Z,14.1457
2023-05-19T11:05:06.457Z,14.4668
2023-05-19T11:06:07.481Z,14.0852
2023-05-19T11:07:08.644Z,14.1276
2023-05-19T11:08:09.668Z,13.8164
2023-05-19T11:09:10.695Z,13.7055
2023-05-19T11:10:10.895Z,14.0261
2023-05-19T11:11:11.829Z,14.1341
2023-05-19T11:12:12.754Z,13.8777
2023-05-19T11:13:14.909Z,13.7701
2023-05-19T11:14:14.737Z,14.0013
2023-05-19T11:15:15.718Z,14.4476
2023-05-19T11:16:16.889Z,14.8866
2023-05-19T11:17:18.078Z,14.7927
2023-05-19T11:18:18.785Z,14.4511
2023-05-19T11:19:20.002Z,14.6625
2023-05-19T11:20:20.109Z,15.3890
2023-05-19T11:21:21.227Z,15.5516
2023-05-19T11:22:22.152Z,15.5172
2023-05-19T11:23:23.442Z,15.5996
2023-05-19T11:24:23.448Z,15.3268
2023-05-19T11:25:24.435Z,14.8441
2023-05-19T11:26:25.271Z,14.4965
2023-05-19T11:27:26.153Z,14.6460
2023-05-19T11:28:26.992Z,14.7553
2023-05-19T11:29:27.858Z,13.9912
2023-05-19T11:30:28.849Z,13.9177
2023-05-19T11:31:29.777Z,13.3865
2023-05-19T11:32:30.955Z,13.5689
2023-05-19T11:33:30.813Z,13.8049
2023-05-19T11:34:31.673Z,14.0931
2023-05-19T11:35:35.444Z,14.4995
2023-05-19T11:36:32.809Z,14.7325
2023-05-19T11:37:33.576Z,15.2610
2023-05-19T11:38:34.388Z,15.6309
2023-05-19T11:39:35.401Z,15.7362
2023-05-19T11:40:36.222Z,15.6239
2023-05-19T11:41:37.267Z,15.6626
2023-05-19T11:42:38.268Z,16.5085
2023-05-19T11:43:39.275Z,17.1583
2023-05-19T11:44:40.482Z,16.8685
2023-05-19T11:45:41.188Z,16.4024
2023-05-19T11:46:42.352Z,15.8830
2023-05-19T11:48:00.895Z,16.6306
2023-05-19T11:48:44.021Z,15.8888
2023-05-19T11:49:44.862Z,16.6848
2023-05-19T11:50:45.896Z,16.0255
2023-05-19T11:51:47.015Z,16.6159
2023-05-19T11:52:48.180Z,17.2489
2023-05-19T11:53:48.381Z,16.7664
2023-05-19T11:54:49.442Z,17.1306
2023-05-19T11:55:50.932Z,16.1886
2023-05-19T11:56:50.775Z,16.4039
2023-05-19T11:58:02.903Z,16.9973
2023-05-19T11:58:52.374Z,17.2452
2023-05-19T11:59:53.392Z,17.0980
2023-05-19T12:00:54.448Z,17.1384
2023-05-19T12:01:54.612Z,17.8515
2023-05-19T12:02:54.707Z,17.7991
2023-05-19T12:03:54.796Z,17.8233
2023-05-19T12:04:55.831Z,18.5798
2023-05-19T12:05:56.618Z,17.5962
2023-05-19T12:06:56.459Z,16.7484
2023-05-19T12:07:57.674Z,17.5452
2023-05-19T12:08:58.609Z,16.9992
2023-05-19T12:09:59.670Z,16.7760
2023-05-19T12:11:00.531Z,16.8158
2023-05-19T12:12:01.493Z,17.1687
2023-05-19T12:13:02.441Z,16.7731
2023-05-19T12:14:03.411Z,16.6764
2023-05-19T12:15:04.334Z,16.7808
2023-05-19T12:16:05.402Z,16.1086
2023-05-19T12:17:06.533Z,15.9884
2023-05-19T12:18:07.748Z,16.3511
2023-05-19T12:19:08.678Z,16.4107
2023-05-19T12:20:09.916Z,15.9937
2023-05-19T12:21:09.877Z,15.6082
2023-05-19T12:22:10.058Z,15.8343
2023-05-19T12:23:10.082Z,16.7363
2023-05-19T12:24:10.878Z,17.0244
2023-05-19T12:25:11.778Z,16.7510
2023-05-19T12:26:11.881Z,16.9862
2023-05-19T12:27:12.987Z,17.1376
2023-05-19T12:28:14.808Z,17.0247
2023-05-19T12:38:22.091Z,17.7521
2023-05-19T12:39:22.985Z,17.8693
2023-05-19T12:40:24.056Z,17.4900
2023-05-19T12:41:25.228Z,16.9978
2023-05-19T12:42:26.152Z,17.1238
2023-05-19T12:43:27.320Z,16.4121
2023-05-19T12:44:28.301Z,16.6274
2023-05-19T12:45:29.174Z,16.1208
2023-05-19T12:46:30.406Z,15.9537
2023-05-19T12:47:31.353Z,16.3934
2023-05-19T12:48:31.436Z,16.2381
2023-05-19T12:49:32.518Z,16.1039
2023-05-19T12:50:32.966Z,15.7854
2023-05-19T12:51:33.494Z,15.7887
2023-05-19T12:52:34.149Z,15.9272
2023-05-19T12:53:35.080Z,15.8940
2023-05-19T12:54:36.296Z,15.5317
2023-05-19T12:57:37.457Z,16.1908
2023-05-19T12:58:37.496Z,16.5663
2023-05-19T12:59:38.992Z,15.7978
2023-05-19T13:00:39.150Z,15.9302
2023-05-19T13:01:40.581Z,15.9325
2023-05-19T13:02:41.543Z,15.4797
2023-05-19T13:03:42.060Z,15.9338
2023-05-19T13:04:43.173Z,16.6661
2023-05-19T13:05:44.218Z,16.8857
2023-05-19T13:06:45.168Z,16.9558
2023-05-19T13:07:45.979Z,16.2235
2023-05-19T13:08:46.823Z,16.9423
2023-05-19T13:09:47.055Z,16.6149
2023-05-19T13:10:47.935Z,17.0629
2023-05-19T13:11:48.835Z,15.8497
2023-05-19T13:12:49.849Z,16.4258
2023-05-19T13:13:49.962Z,16.3125
2023-05-19T13:14:51.660Z,15.1583
2023-05-19T13:15:51.191Z,15.0518
2023-05-19T13:16:52.275Z,14.5498
2023-05-19T13:17:53.273Z,14.6567
2023-05-19T13:18:53.670Z,14.5824
2023-05-19T13:19:54.382Z,14.0871
2023-05-19T13:20:55.314Z,14.2405
2023-05-19T13:21:56.467Z,14.2967
2023-05-19T13:22:57.418Z,14.3132
2023-05-19T13:23:58.486Z,14.3636
2023-05-19T13:24:59.442Z,14.3350
2023-05-19T13:26:00.053Z,14.6100
2023-05-19T13:27:00.263Z,14.6753
2023-05-19T13:28:01.560Z,14.7546
2023-05-19T13:29:02.502Z,14.9068
2023-05-19T13:30:03.418Z,14.8427
2023-05-19T13:31:04.425Z,14.9311
2023-05-19T13:32:04.397Z,14.9216
2023-05-19T13:33:05.652Z,14.7469
2023-05-19T13:34:06.204Z,15.0798
2023-05-19T13:35:07.004Z,14.9092
2023-05-19T13:36:07.378Z,14.4884
2023-05-19T13:48:16.355Z,14.6328
2023-05-19T13:49:17.360Z,14.7238
2023-05-19T13:50:18.344Z,14.7040
2023-05-19T13:51:19.302Z,14.8863
2023-05-19T13:52:20.380Z,15.1461
2023-05-19T13:53:21.450Z,15.2257
2023-05-19T13:54:22.677Z,15.3237
2023-05-19T13:55:23.729Z,15.2062
2023-05-19T13:56:24.555Z,15.2310
2023-05-19T13:57:25.505Z,15.4978
2023-05-19T13:58:26.438Z,15.0542
2023-05-19T13:59:27.448Z,14.7361
2023-05-19T14:00:27.865Z,14.8214
2023-05-19T14:01:28.022Z,14.5555
2023-05-19T14:13:43.685Z,13.5943
2023-05-19T14:14:43.699Z,13.4350
2023-05-19T14:15:43.794Z,13.4199
2023-05-19T14:16:45.300Z,13.3986
2023-05-19T14:17:46.390Z,13.5220
2023-05-19T14:18:46.475Z,13.5250
2023-05-19T14:19:47.658Z,13.5272
2023-05-19T14:20:48.676Z,13.5849
2023-05-19T14:21:49.687Z,13.6219
2023-05-19T14:22:50.675Z,13.6857
2023-05-19T14:23:51.919Z,13.8435
2023-05-19T14:24:52.680Z,13.8299
2023-05-19T14:25:53.777Z,13.9276
2023-05-19T14:26:53.899Z,13.9610
2023-05-19T14:27:55.044Z,13.9694
2023-05-19T14:28:56.247Z,14.0131
2023-05-19T14:29:57.138Z,14.2852
2023-05-19T14:30:57.272Z,13.9146
2023-05-19T14:31:58.555Z,13.9809
2023-05-19T14:32:59.589Z,13.7853
2023-05-19T14:34:00.786Z,13.8005
2023-05-19T14:35:01.727Z,13.7250
2023-05-19T14:36:02.783Z,13.7279
2023-05-19T14:37:03.840Z,13.6936
2023-05-19T14:38:04.998Z,13.7099
2023-05-19T14:39:05.771Z,13.7289
2023-05-19T14:40:08.813Z,13.6988
2023-05-19T14:45:10.230Z,13.9124
2023-05-19T15:16:34.241Z,14.2644
2023-05-19T15:17:35.498Z,14.2872
2023-05-19T15:18:36.662Z,14.2506
2023-05-19T15:19:36.894Z,14.0308
2023-05-19T15:20:40.278Z,13.9600
2023-05-19T15:21:40.550Z,13.8516
2023-05-19T15:23:41.261Z,13.4827
2023-05-19T15:28:03.122Z,12.9949
2023-05-19T15:29:04.370Z,12.9536
2023-05-19T15:30:05.139Z,12.8392
2023-05-19T15:32:06.197Z,12.7544
2023-05-19T15:34:07.636Z,12.7485
2023-05-19T15:35:07.938Z,12.7379
2023-05-19T15:36:08.221Z,12.7709
2023-05-19T15:37:09.674Z,12.7798
2023-05-19T15:38:09.366Z,12.7531
2023-05-19T15:39:10.697Z,12.8274
2023-05-19T15:40:11.974Z,12.7853
2023-05-19T15:46:15.456Z,12.7604
2023-05-19T15:47:15.968Z,12.9756
2023-05-19T15:48:17.960Z,12.9508
2023-05-19T15:49:18.248Z,12.9712
2023-05-19T15:52:21.286Z,12.9068
2023-05-19T15:53:22.558Z,12.9293
2023-05-19T15:54:23.332Z,12.9173
2023-05-19T15:55:24.150Z,13.0326
2023-05-19T15:56:24.263Z,13.0556
2023-05-19T15:57:25.356Z,13.1743
2023-05-19T15:58:26.185Z,13.2451
2023-05-19T15:59:27.389Z,13.1857
2023-05-19T16:01:28.122Z,13.3670
2023-05-19T16:03:27.714Z,13.4960
2023-05-19T16:04:28.788Z,13.3381
2023-05-19T16:05:29.093Z,13.4395
2023-05-19T16:06:30.079Z,13.5487
2023-05-19T16:07:30.475Z,13.5095
2023-05-19T16:08:31.009Z,13.6948
2023-05-19T16:09:32.227Z,13.6109
2023-05-19T16:10:32.898Z,13.6381
2023-05-19T16:12:33.824Z,13.4782
2023-05-19T16:13:35.112Z,13.6396
2023-05-19T16:15:35.602Z,13.6165
2023-05-19T16:16:37.052Z,13.5625
2023-05-19T16:17:36.848Z,13.5946
2023-05-19T16:18:38.378Z,13.6042
2023-05-19T16:19:38.385Z,13.8484
2023-05-19T16:21:39.128Z,13.7657
2023-05-19T16:32:44.369Z,13.9035
2023-05-19T16:33:44.597Z,13.5626
2023-05-19T16:34:45.581Z,13.5697
2023-05-19T16:36:46.830Z,13.5488
2023-05-19T16:38:47.891Z,13.6422
2023-05-19T16:39:48.370Z,13.6279
2023-05-19T16:45:52.597Z,13.2841
2023-05-19T16:46:53.309Z,13.3567
2023-05-19T16:47:54.677Z,13.3850
2023-05-19T16:48:55.825Z,13.2295
2023-05-19T16:49:56.017Z,13.2495
2023-05-19T16:51:57.154Z,13.1412
2023-05-19T16:52:57.500Z,13.1928
2023-05-19T16:53:57.664Z,13.0653
2023-05-19T16:56:00.451Z,12.9210
2023-05-19T16:57:01.493Z,12.8489
2023-05-19T16:59:02.118Z,12.9215
2023-05-19T17:00:03.302Z,12.9372
2023-05-19T17:01:03.774Z,12.8254
2023-05-19T17:02:05.117Z,12.8276
2023-05-19T17:03:05.368Z,12.8541
2023-05-19T17:04:05.577Z,12.6943
2023-05-19T17:05:07.186Z,12.6494
2023-05-19T17:06:07.431Z,12.6108
2023-05-19T17:08:08.374Z,12.6443
2023-05-19T17:09:09.267Z,12.5256
2023-05-19T17:10:10.599Z,12.5207
2023-05-19T17:11:11.458Z,12.5064
2023-05-19T17:12:11.808Z,12.4324
2023-05-19T17:13:12.995Z,12.4682
2023-05-19T17:14:14.205Z,12.4411
2023-05-19T17:15:15.035Z,12.4242
2023-05-19T17:16:15.913Z,12.4509
2023-05-19T17:17:16.045Z,12.4766
2023-05-19T17:18:16.880Z,12.3994
2023-05-19T17:19:17.836Z,12.3976
2023-05-19T17:20:18.382Z,12.3656
2023-05-19T17:21:19.589Z,12.3451
2023-05-19T17:22:20.178Z,12.3336
2023-05-19T17:23:20.867Z,12.2597
2023-05-19T17:24:21.775Z,12.3021
2023-05-19T17:25:22.146Z,12.3141
2023-05-19T17:26:23.153Z,12.3022
2023-05-19T17:27:24.039Z,12.3610
2023-05-19T17:32:26.185Z,12.2450
2023-05-19T17:34:27.470Z,12.2277
2023-05-19T17:35:28.657Z,12.1562
2023-05-19T17:36:29.042Z,12.1774
2023-05-19T17:37:30.524Z,12.1462
2023-05-19T17:40:32.008Z,12.1268
2023-05-19T17:42:32.547Z,12.1103
2023-05-19T17:43:32.809Z,12.1449
2023-05-19T17:45:36.439Z,11.9983
2023-05-19T17:54:41.864Z,11.9995
2023-05-19T17:55:42.398Z,12.0062
2023-05-19T17:56:43.939Z,12.0264
2023-05-19T17:57:45.662Z,11.9704
2023-05-19T17:58:45.975Z,11.9252
2023-05-19T17:59:46.099Z,11.9456
2023-05-19T18:00:47.752Z,11.9527
2023-05-19T18:01:47.913Z,11.8793
2023-05-19T18:02:48.404Z,11.9518
2023-05-19T18:03:50.013Z,11.8909
2023-05-19T18:08:52.853Z,11.9112
2023-05-19T18:09:53.215Z,11.8914
2023-05-19T18:11:56.193Z,11.9105
2023-05-19T18:12:57.428Z,11.8620
2023-05-19T18:14:59.101Z,11.8547
2023-05-19T18:16:00.268Z,11.8096
2023-05-19T18:17:00.519Z,11.7891
2023-05-19T18:18:01.099Z,11.8288
2023-05-19T18:19:01.952Z,11.8233
2023-05-19T18:30:09.731Z,11.7532
2023-05-19T18:31:10.669Z,11.6871
2023-05-19T18:32:11.097Z,11.6499
2023-05-19T18:33:12.109Z,11.6218
2023-05-19T18:34:11.496Z,11.6179
2023-05-19T18:35:12.644Z,11.5956
2023-05-19T18:36:13.963Z,11.6037
2023-05-19T18:37:14.920Z,11.5676
2023-05-19T18:38:15.103Z,11.5499
2023-05-19T18:39:16.115Z,11.5571
2023-05-19T18:40:16.550Z,11.5398
2023-05-19T18:41:16.820Z,11.6164
2023-05-19T18:43:20.345Z,11.6123
2023-05-19T18:44:21.438Z,11.5975
2023-05-19T18:53:28.614Z,11.4788
2023-05-19T18:54:29.595Z,11.4525
2023-05-19T18:56:30.283Z,11.3987
2023-05-19T18:57:30.793Z,11.3779
2023-05-19T18:59:33.852Z,11.3613
2023-05-19T19:00:35.269Z,11.4008
2023-05-19T19:01:35.292Z,11.3501
2023-05-19T19:02:36.335Z,11.2806
2023-05-19T19:03:37.781Z,11.2491
2023-05-19T19:04:38.247Z,11.3876
2023-05-19T19:05:39.609Z,11.3422
2023-05-19T19:06:42.014Z,11.3381
2023-05-19T19:15:47.580Z,11.2063
2023-05-19T19:16:48.699Z,11.1961
2023-05-19T19:17:49.625Z,11.2664
2023-05-19T19:18:50.687Z,11.1739
2023-05-19T19:19:51.281Z,11.2064
2023-05-19T19:20:51.487Z,11.2020
2023-05-19T19:21:52.365Z,11.2006
2023-05-19T19:22:52.750Z,11.2746
2023-05-19T19:23:53.946Z,11.2829
2023-05-19T19:24:55.121Z,11.3118
2023-05-19T19:25:55.653Z,11.3018
2023-05-19T19:26:57.080Z,11.2608
2023-05-19T19:27:57.322Z,11.3810
2023-05-19T19:28:57.414Z,11.2459
2023-05-19T19:29:58.302Z,11.1990
2023-05-19T19:36:03.797Z,11.0400
2023-05-19T19:37:05.272Z,11.0586
2023-05-19T19:39:06.154Z,11.1277
2023-05-19T19:40:06.243Z,11.0778
2023-05-19T19:41:07.240Z,11.0891
2023-05-19T19:42:08.415Z,11.1434
2023-05-19T19:43:09.064Z,11.1023
2023-05-19T19:44:10.290Z,11.0764
2023-05-19T19:45:12.496Z,11.0802
2023-05-19T19:46:12.271Z,11.1702
2023-05-19T19:47:12.783Z,11.1266
2023-05-19T19:48:13.091Z,11.0361
2023-05-19T19:49:13.959Z,11.0399
2023-05-19T19:50:15.061Z,11.0191
2023-05-19T19:51:16.294Z,10.9944
2023-05-19T19:52:17.636Z,10.9184
2023-05-19T19:58:21.215Z,10.8803
2023-05-19T19:59:21.571Z,10.8551
2023-05-19T20:00:22.403Z,10.9097
2023-05-19T20:01:22.869Z,10.8690
2023-05-19T20:07:26.012Z,10.8407
2023-05-19T20:08:27.107Z,10.8432
2023-05-19T20:10:30.370Z,10.8493
2023-05-19T20:12:31.409Z,10.8850
2023-05-19T20:13:32.928Z,10.8778
2023-05-19T20:14:32.087Z,10.8840
2023-05-19T20:15:33.093Z,10.8266